createdAt,value
2022-10-14T00:00:49.980Z,12.99
2022-10-14T00:03:17.910Z,12.98
2022-10-14T00:05:45.768Z,12.94
2022-10-14T00:08:13.628Z,12.94
2022-10-14T00:10:41.510Z,12.91
2022-10-14T00:13:09.429Z,12.93
2022-10-14T00:15:42.448Z,12.87
2022-10-14T00:18:10.838Z,12.88
2022-10-14T00:20:38.749Z,12.78
2022-10-14T00:23:06.625Z,12.87
2022-10-14T00:25:40.087Z,12.92
2022-10-14T00:28:08.014Z,12.94
2022-10-14T00:30:35.927Z,12.93
2022-10-14T00:33:05.301Z,12.89
2022-10-14T00:35:33.239Z,12.94
2022-10-14T00:38:01.185Z,12.91
2022-10-14T00:40:29.097Z,12.87
2022-10-14T00:42:56.964Z,12.82
2022-10-14T00:45:26.046Z,12.79
2022-10-14T00:47:54.609Z,12.78
2022-10-14T00:50:24.419Z,12.77
2022-10-14T00:52:52.297Z,12.59
2022-10-14T00:55:20.808Z,12.64
2022-10-14T00:57:48.888Z,12.57
2022-10-14T01:00:19.942Z,12.50
2022-10-14T01:02:49.398Z,12.47
2022-10-14T01:05:20.978Z,12.46
2022-10-14T01:08:00.580Z,12.44
2022-10-14T01:10:36.632Z,12.45
2022-10-14T01:13:14.857Z,12.37
2022-10-14T01:15:50.687Z,12.29
2022-10-14T01:18:34.782Z,12.32
2022-10-14T01:21:13.292Z,12.37
2022-10-14T01:24:11.600Z,12.33
2022-10-14T01:27:17.960Z,12.34
2022-10-14T01:30:12.563Z,12.40
2022-10-14T01:32:51.675Z,12.26
2022-10-14T01:35:30.555Z,12.34
2022-10-14T01:38:03.068Z,12.29
2022-10-14T01:40:36.502Z,12.19
2022-10-14T01:43:06.975Z,12.21
2022-10-14T01:45:41.967Z,12.22
2022-10-14T01:48:12.473Z,12.15
2022-10-14T01:50:42.904Z,12.17
2022-10-14T01:53:15.949Z,12.06
2022-10-14T01:55:47.155Z,12.19
2022-10-14T01:58:17.555Z,12.18
2022-10-14T02:00:48.006Z,12.15
2022-10-14T02:03:16.028Z,12.10
2022-10-14T02:05:49.335Z,12.12
2022-10-14T02:08:27.549Z,12.17
2022-10-14T02:11:06.453Z,12.19
2022-10-14T02:14:00.312Z,12.29
2022-10-14T02:16:38.480Z,12.30
2022-10-14T02:19:13.948Z,12.31
2022-10-14T02:21:44.768Z,12.31
2022-10-14T02:24:19.546Z,12.24
2022-10-14T02:26:49.712Z,12.31
2022-10-14T02:29:20.794Z,12.35
2022-10-14T02:31:52.196Z,12.33
2022-10-14T02:34:23.227Z,12.23
2022-10-14T02:36:51.809Z,12.18
2022-10-14T02:39:25.420Z,12.14
2022-10-14T02:41:53.408Z,12.04
2022-10-14T02:44:21.637Z,11.97
2022-10-14T02:46:50.960Z,11.92
2022-10-14T02:49:19.513Z,12.00
2022-10-14T02:51:47.410Z,11.87
2022-10-14T02:54:15.432Z,11.82
2022-10-14T02:56:43.349Z,11.82
2022-10-14T02:59:11.324Z,11.86
2022-10-14T03:01:39.228Z,11.88
2022-10-14T03:04:08.532Z,11.87
2022-10-14T03:06:36.375Z,11.82
2022-10-14T03:09:04.391Z,11.94
2022-10-14T03:11:32.279Z,11.90
2022-10-14T03:14:00.176Z,11.81
2022-10-14T03:16:28.045Z,11.82
2022-10-14T03:18:55.948Z,11.84
2022-10-14T03:21:25.228Z,11.72
2022-10-14T03:23:53.128Z,11.78
2022-10-14T03:26:21.149Z,11.84
2022-10-14T03:28:49.051Z,11.80
2022-10-14T03:31:16.932Z,11.88
2022-10-14T03:33:44.827Z,11.92
2022-10-14T03:36:13.250Z,11.85
2022-10-14T03:38:42.490Z,11.75
2022-10-14T03:41:10.454Z,11.68
2022-10-14T03:43:38.384Z,11.68
2022-10-14T03:46:06.554Z,11.68
2022-10-14T03:48:34.449Z,11.74
2022-10-14T03:51:02.618Z,11.55
2022-10-14T03:53:30.485Z,11.60
2022-10-14T03:55:59.831Z,11.64
2022-10-14T03:58:27.891Z,11.63
2022-10-14T04:00:55.829Z,11.61
2022-10-14T04:03:23.810Z,11.64
2022-10-14T04:05:51.715Z,11.45
2022-10-14T04:08:19.647Z,11.63
2022-10-14T04:10:47.572Z,11.60
2022-10-14T04:13:16.849Z,11.60
2022-10-14T04:15:44.840Z,11.62
2022-10-14T04:18:13.021Z,11.54
2022-10-14T04:20:40.987Z,11.52
2022-10-14T04:23:09.142Z,11.56
2022-10-14T04:25:38.936Z,11.44
2022-10-14T04:28:07.066Z,11.50
2022-10-14T04:30:36.610Z,11.53
2022-10-14T04:33:04.611Z,11.58
2022-10-14T04:35:32.486Z,11.58
2022-10-14T04:38:00.343Z,11.59
2022-10-14T04:40:28.223Z,11.45
2022-10-14T04:42:57.387Z,11.45
2022-10-14T04:45:26.313Z,11.40
2022-10-14T04:47:55.601Z,11.37
2022-10-14T04:50:23.471Z,11.34
2022-10-14T04:52:51.327Z,11.38
2022-10-14T04:55:19.211Z,11.45
2022-10-14T04:57:47.070Z,11.44
2022-10-14T05:00:16.461Z,11.43
2022-10-14T05:02:44.387Z,11.52
2022-10-14T05:05:14.931Z,11.57
2022-10-14T05:07:43.172Z,11.50
2022-10-14T05:10:11.431Z,11.50
2022-10-14T05:12:40.564Z,11.47
2022-10-14T05:15:09.590Z,11.53
2022-10-14T05:17:37.995Z,11.49
2022-10-14T05:20:06.817Z,11.63
2022-10-14T05:22:36.090Z,11.63
2022-10-14T05:25:04.060Z,11.69
2022-10-14T05:27:32.055Z,11.71
2022-10-14T05:29:59.940Z,11.73
2022-10-14T05:32:27.842Z,11.83
2022-10-14T05:34:58.011Z,11.72
2022-10-14T05:37:25.894Z,11.68
2022-10-14T05:39:58.306Z,11.83
2022-10-14T05:42:28.860Z,11.90
2022-10-14T05:45:02.815Z,11.85
2022-10-14T05:47:32.301Z,11.86
2022-10-14T05:50:03.129Z,11.86
2022-10-14T05:52:35.356Z,11.92
2022-10-14T05:55:11.130Z,11.98
2022-10-14T05:57:39.063Z,12.06
2022-10-14T06:00:11.627Z,12.17
2022-10-14T06:02:42.296Z,12.19
2022-10-14T06:05:12.681Z,12.33
2022-10-14T06:07:48.146Z,12.47
2022-10-14T06:18:56.495Z,12.37
2022-10-14T06:26:11.983Z,12.52
2022-10-14T06:28:41.384Z,12.74
2022-10-14T06:31:09.441Z,12.91
2022-10-14T06:33:37.445Z,12.97
2022-10-14T06:36:07.052Z,13.11
2022-10-14T06:38:34.943Z,13.21
2022-10-14T06:41:02.840Z,13.18
2022-10-14T06:43:30.721Z,13.25
2022-10-14T06:46:00.042Z,13.26
2022-10-14T06:48:27.949Z,13.34
2022-10-14T06:50:55.978Z,13.42
2022-10-14T06:53:23.942Z,13.53
2022-10-14T06:55:58.913Z,13.33
2022-10-14T06:58:26.949Z,13.31
2022-10-14T07:00:54.999Z,13.44
2022-10-14T07:03:24.402Z,13.48
2022-10-14T07:05:52.597Z,13.45
2022-10-14T07:08:20.496Z,13.37
2022-10-14T07:10:48.767Z,13.56
2022-10-14T07:13:16.698Z,13.53
2022-10-14T07:15:44.638Z,13.68
2022-10-14T07:18:12.657Z,13.65
2022-10-14T07:20:41.972Z,13.73
2022-10-14T07:23:09.953Z,13.71
2022-10-14T07:25:37.949Z,13.78
2022-10-14T07:28:06.380Z,13.87
2022-10-14T07:30:34.400Z,14.00
2022-10-14T07:33:02.523Z,14.07
2022-10-14T07:35:30.598Z,14.04
2022-10-14T07:38:00.902Z,14.11
2022-10-14T07:40:29.048Z,14.11
2022-10-14T07:42:57.403Z,14.10
2022-10-14T07:45:25.584Z,14.04
2022-10-14T07:47:53.499Z,13.98
2022-10-14T07:50:21.427Z,13.98
2022-10-14T07:52:49.446Z,13.92
2022-10-14T07:55:18.861Z,14.08
2022-10-14T07:57:46.792Z,14.09
2022-10-14T08:00:14.964Z,13.88
2022-10-14T08:02:42.817Z,14.05
2022-10-14T08:05:36.403Z,14.18
2022-10-14T08:07:58.607Z,14.27
2022-10-14T08:10:27.900Z,14.27
2022-10-14T08:12:59.947Z,14.22
2022-10-14T08:15:29.904Z,14.34
2022-10-14T08:17:57.867Z,14.41
2022-10-14T08:20:29.268Z,14.62
2022-10-14T08:22:57.249Z,14.54
2022-10-14T08:25:25.593Z,14.57
2022-10-14T08:27:57.451Z,14.59
2022-10-14T08:30:25.620Z,14.39
2022-10-14T08:32:53.547Z,14.45
2022-10-14T08:35:21.444Z,14.52
2022-10-14T08:37:57.051Z,14.64
2022-10-14T08:40:25.928Z,14.78
2022-10-14T08:43:02.431Z,14.91
2022-10-14T08:45:35.601Z,14.85
2022-10-14T08:48:10.096Z,14.88
2022-10-14T08:50:42.456Z,14.97
2022-10-14T08:53:15.894Z,14.98
2022-10-14T08:55:46.803Z,14.87
2022-10-14T08:58:22.561Z,15.06
2022-10-14T09:00:52.907Z,15.11
2022-10-14T09:03:23.963Z,15.14
2022-10-14T09:05:58.613Z,15.28
2022-10-14T09:08:30.987Z,15.14
2022-10-14T09:10:59.403Z,15.13
2022-10-14T09:13:32.318Z,15.30
2022-10-14T09:16:06.251Z,15.35
2022-10-14T09:18:38.781Z,15.43
2022-10-14T09:21:40.797Z,15.58
2022-10-14T09:24:21.425Z,15.64
2022-10-14T09:26:52.153Z,15.81
2022-10-14T09:29:27.541Z,15.80
2022-10-14T09:31:59.125Z,16.10
2022-10-14T09:34:32.745Z,16.09
2022-10-14T09:37:19.383Z,16.12
2022-10-14T09:39:52.196Z,16.31
2022-10-14T09:42:22.970Z,16.28
2022-10-14T09:45:11.495Z,16.47
2022-10-14T09:47:46.770Z,16.46
2022-10-14T09:50:23.107Z,16.43
2022-10-14T09:52:54.317Z,16.73
2022-10-14T09:55:25.200Z,16.87
2022-10-14T09:58:06.470Z,16.91
2022-10-14T10:00:38.669Z,16.72
2022-10-14T10:03:08.051Z,16.95
2022-10-14T10:05:37.248Z,17.21
2022-10-14T10:08:13.639Z,17.56
2022-10-14T10:10:41.861Z,17.74
2022-10-14T10:13:23.412Z,17.84
2022-10-14T10:16:01.073Z,17.80
2022-10-14T10:18:29.077Z,17.77
2022-10-14T10:21:06.742Z,17.82
2022-10-14T10:23:36.751Z,17.75
2022-10-14T10:26:21.090Z,17.61
2022-10-14T10:28:50.579Z,17.46
2022-10-14T10:31:35.128Z,17.24
2022-10-14T10:34:15.867Z,17.15
2022-10-14T10:36:50.792Z,17.34
2022-10-14T10:39:32.249Z,17.71
2022-10-14T10:42:08.698Z,18.02
2022-10-14T10:44:58.895Z,18.02
2022-10-14T10:47:34.551Z,18.11
2022-10-14T10:50:26.831Z,18.40
2022-10-14T10:53:11.511Z,18.43
2022-10-14T10:55:49.583Z,18.51
2022-10-14T10:58:30.726Z,18.89
2022-10-14T11:01:06.668Z,18.88
2022-10-14T11:03:48.505Z,18.87
2022-10-14T11:06:41.221Z,18.94
2022-10-14T11:09:36.235Z,18.82
2022-10-14T11:12:15.579Z,18.52
2022-10-14T11:15:07.107Z,18.74
2022-10-14T11:17:43.619Z,18.89
2022-10-14T11:20:30.110Z,19.13
2022-10-14T11:23:09.711Z,19.01
2022-10-14T11:25:49.352Z,19.16
2022-10-14T11:28:27.515Z,18.81
2022-10-14T11:31:04.992Z,18.91
2022-10-14T11:33:50.390Z,19.13
2022-10-14T11:36:32.077Z,19.49
2022-10-14T11:39:24.298Z,19.87
2022-10-14T11:42:05.138Z,20.00
2022-10-14T11:44:39.395Z,20.18
2022-10-14T11:47:13.956Z,20.86
2022-10-14T11:49:49.784Z,20.79
2022-10-14T11:52:25.829Z,20.96
2022-10-14T11:54:58.787Z,21.32
2022-10-14T11:57:32.850Z,21.52
2022-10-14T12:00:05.291Z,21.73
2022-10-14T12:02:42.033Z,21.51
2022-10-14T12:05:18.280Z,21.32
2022-10-14T12:07:58.341Z,21.48
2022-10-14T12:10:31.591Z,21.18
2022-10-14T12:13:01.476Z,21.15
2022-10-14T12:18:01.962Z,21.02
2022-10-14T12:20:39.653Z,20.89
2022-10-14T12:23:13.186Z,20.77
2022-10-14T12:25:49.877Z,20.60
2022-10-14T12:28:20.983Z,20.06
2022-10-14T12:30:49.118Z,19.76
2022-10-14T12:33:22.664Z,19.58
2022-10-14T12:36:00.981Z,19.36
2022-10-14T12:38:34.572Z,19.28
2022-10-14T12:41:34.173Z,18.78
2022-10-14T12:44:04.800Z,18.45
2022-10-14T12:46:35.794Z,18.57
2022-10-14T12:49:04.637Z,18.42
2022-10-14T12:51:32.559Z,18.36
2022-10-14T12:54:08.854Z,18.25
2022-10-14T12:57:20.997Z,18.25
2022-10-14T12:59:55.751Z,18.38
2022-10-14T13:02:34.951Z,18.40
2022-10-14T13:05:07.176Z,18.22
2022-10-14T13:07:45.521Z,18.51
2022-10-14T13:10:52.476Z,18.58
2022-10-14T13:13:56.527Z,18.40
2022-10-14T13:16:57.666Z,18.30
2022-10-14T13:19:44.583Z,18.18
2022-10-14T13:22:41.179Z,18.22
2022-10-14T13:25:16.300Z,18.19
2022-10-14T13:27:55.844Z,18.20
2022-10-14T13:30:34.116Z,17.88
2022-10-14T13:33:13.067Z,18.01
2022-10-14T13:35:53.995Z,17.78
2022-10-14T13:38:24.851Z,17.71
2022-10-14T13:40:54.591Z,17.41
2022-10-14T13:43:27.328Z,17.42
2022-10-14T13:45:59.712Z,17.32
2022-10-14T13:48:33.488Z,17.21
2022-10-14T13:51:37.066Z,17.19
2022-10-14T13:54:18.314Z,17.11
2022-10-14T13:57:12.610Z,17.14
2022-10-14T14:00:27.761Z,17.04
2022-10-14T14:02:38.145Z,16.97
2022-10-14T14:05:15.505Z,16.96
2022-10-14T14:10:32.535Z,17.55
2022-10-14T14:13:05.848Z,17.78
2022-10-14T14:15:34.657Z,18.00
2022-10-14T14:18:02.628Z,18.02
2022-10-14T14:20:34.028Z,17.56
2022-10-14T14:23:01.984Z,17.40
2022-10-14T14:25:35.854Z,17.18
2022-10-14T14:28:07.094Z,17.23
2022-10-14T14:30:36.935Z,17.03
2022-10-14T14:33:08.569Z,17.24
2022-10-14T14:35:38.079Z,17.12
2022-10-14T14:38:05.989Z,17.00
2022-10-14T14:40:33.873Z,16.66
2022-10-14T14:43:04.862Z,16.62
2022-10-14T14:45:38.615Z,16.26
2022-10-14T14:48:08.329Z,16.32
2022-10-14T14:50:41.156Z,16.31
2022-10-14T14:53:13.376Z,16.17
2022-10-14T14:55:47.024Z,16.26
2022-10-14T14:58:27.047Z,16.26
2022-10-14T15:00:55.842Z,16.24
2022-10-14T15:03:25.484Z,16.06
2022-10-14T15:05:58.745Z,15.80
2022-10-14T15:08:28.455Z,15.86
2022-10-14T15:10:59.002Z,15.82
2022-10-14T15:13:43.168Z,15.79
2022-10-14T15:16:11.113Z,15.85
2022-10-14T15:18:41.133Z,15.82
2022-10-14T15:21:18.989Z,15.81
2022-10-14T15:24:03.192Z,15.71
2022-10-14T15:26:34.613Z,15.76
2022-10-14T15:29:17.913Z,15.74
2022-10-14T15:31:48.190Z,15.57
2022-10-14T15:34:19.272Z,15.57
2022-10-14T15:36:51.611Z,15.52
2022-10-14T15:39:19.730Z,15.55
2022-10-14T15:41:47.660Z,15.48
2022-10-14T15:44:15.648Z,15.46
2022-10-14T15:47:03.063Z,15.35
2022-10-14T15:49:34.777Z,15.36
2022-10-14T15:52:04.843Z,15.33
2022-10-14T15:54:32.821Z,15.24
2022-10-14T15:57:00.852Z,15.22
2022-10-14T15:59:28.819Z,15.11
2022-10-14T16:01:56.811Z,15.03
2022-10-14T16:04:27.919Z,14.88
2022-10-14T16:06:57.941Z,14.85
2022-10-14T16:09:28.727Z,14.77
2022-10-14T16:12:00.746Z,14.69
2022-10-14T16:14:29.097Z,14.61
2022-10-14T16:16:57.034Z,14.57
2022-10-14T16:19:25.278Z,14.57
2022-10-14T16:21:53.210Z,14.53
2022-10-14T16:24:25.280Z,14.35
2022-10-14T16:26:55.917Z,14.41
2022-10-14T16:29:23.800Z,14.36
2022-10-14T16:31:52.455Z,14.34
2022-10-14T16:34:21.446Z,14.33
2022-10-14T16:36:53.345Z,14.31
2022-10-14T16:39:21.453Z,14.22
2022-10-14T16:41:49.734Z,14.18
2022-10-14T16:44:28.192Z,14.14
2022-10-14T16:47:15.448Z,14.14
2022-10-14T16:49:44.862Z,14.09
2022-10-14T16:52:14.414Z,14.10
2022-10-14T16:54:42.360Z,14.07
2022-10-14T16:57:11.642Z,14.04
2022-10-14T16:59:40.993Z,14.00
2022-10-14T17:02:11.095Z,13.98
2022-10-14T17:04:39.417Z,13.93
2022-10-14T17:07:08.907Z,14.00
2022-10-14T17:09:39.045Z,13.85
2022-10-14T17:12:11.246Z,13.85
2022-10-14T17:14:43.986Z,13.76
2022-10-14T17:17:13.122Z,13.83
2022-10-14T17:19:41.351Z,13.82
2022-10-14T17:22:09.590Z,13.79
2022-10-14T17:24:37.603Z,13.80
2022-10-14T17:27:05.908Z,13.76
2022-10-14T17:29:34.144Z,13.76
2022-10-14T17:32:03.484Z,13.63
2022-10-14T17:34:32.393Z,13.70
2022-10-14T17:37:00.670Z,13.67
2022-10-14T17:39:31.559Z,13.73
2022-10-14T17:41:59.510Z,13.70
2022-10-14T17:44:28.722Z,13.66
2022-10-14T17:46:56.943Z,13.55
2022-10-14T17:49:26.224Z,13.59
2022-10-14T17:51:54.165Z,13.70
2022-10-14T17:54:24.440Z,13.58
2022-10-14T17:56:52.490Z,13.47
2022-10-14T17:59:20.486Z,13.59
2022-10-14T18:02:02.192Z,13.38
2022-10-14T18:04:32.677Z,13.42
2022-10-14T18:07:00.970Z,13.49
2022-10-14T18:09:28.999Z,13.55
2022-10-14T18:12:13.002Z,13.49
2022-10-14T18:14:41.478Z,13.44
2022-10-14T18:17:10.984Z,13.39
2022-10-14T18:19:40.819Z,13.11
2022-10-14T18:22:11.213Z,12.87
2022-10-14T18:24:39.379Z,12.89
2022-10-14T18:27:07.722Z,12.89
2022-10-14T18:29:35.782Z,12.69
2022-10-14T18:32:03.864Z,12.51
2022-10-14T18:34:32.261Z,12.52
2022-10-14T18:37:01.567Z,12.50
2022-10-14T18:39:29.466Z,12.21
2022-10-14T18:41:57.367Z,12.00
2022-10-14T18:44:25.300Z,11.97
2022-10-14T18:46:53.166Z,12.05
2022-10-14T18:49:21.169Z,11.88
2022-10-14T18:51:49.095Z,11.73
2022-10-14T18:54:20.158Z,11.65
2022-10-14T18:56:48.732Z,11.73
2022-10-14T18:59:19.348Z,11.70
2022-10-14T19:01:47.935Z,11.76
2022-10-14T19:04:17.086Z,11.83
2022-10-14T19:06:48.886Z,11.86
2022-10-14T19:09:21.444Z,11.84
2022-10-14T19:11:52.094Z,11.86
2022-10-14T19:14:20.798Z,11.77
2022-10-14T19:16:49.841Z,11.82
2022-10-14T19:19:19.870Z,11.82
2022-10-14T19:21:50.930Z,11.86
2022-10-14T19:24:20.234Z,11.76
2022-10-14T19:26:49.981Z,11.73
2022-10-14T19:29:19.737Z,11.59
2022-10-14T19:31:50.967Z,11.58
2022-10-14T19:34:18.890Z,11.61
2022-10-14T19:36:46.873Z,11.66
2022-10-14T19:39:16.653Z,11.49
2022-10-14T19:41:47.411Z,11.57
2022-10-14T19:44:16.605Z,11.55
2022-10-14T19:46:45.140Z,11.43
2022-10-14T19:49:14.236Z,11.50
2022-10-14T19:51:42.311Z,11.31
2022-10-14T19:54:12.213Z,11.54
2022-10-14T19:56:40.656Z,11.41
2022-10-14T19:59:10.724Z,11.50
2022-10-14T20:01:38.778Z,11.57
2022-10-14T20:04:07.022Z,11.58
2022-10-14T20:06:37.757Z,11.67
2022-10-14T20:09:05.974Z,11.72
2022-10-14T20:11:34.029Z,11.71
2022-10-14T20:14:01.889Z,11.74
2022-10-14T20:16:31.200Z,11.78
2022-10-14T20:18:59.127Z,11.88
2022-10-14T20:21:29.963Z,11.88
2022-10-14T20:23:59.143Z,11.78
2022-10-14T20:26:27.434Z,11.78
2022-10-14T20:28:55.622Z,11.84
2022-10-14T20:31:25.566Z,11.85
2022-10-14T20:33:56.249Z,11.82
2022-10-14T20:36:24.378Z,11.80
2022-10-14T20:38:52.876Z,11.72
2022-10-14T20:41:22.256Z,11.80
2022-10-14T20:43:50.413Z,11.87
2022-10-14T20:46:18.354Z,11.85
2022-10-14T20:48:46.487Z,11.88
2022-10-14T20:51:19.623Z,11.88
2022-10-14T20:53:47.513Z,11.93
2022-10-14T20:56:15.669Z,11.93
2022-10-14T20:58:43.897Z,12.03
2022-10-14T21:01:13.338Z,12.09
2022-10-14T21:03:42.209Z,12.15
2022-10-14T21:06:12.112Z,12.06
2022-10-14T21:08:41.594Z,12.04
2022-10-14T21:11:15.057Z,12.05
2022-10-14T21:13:45.960Z,11.94
2022-10-14T21:16:15.889Z,11.89
2022-10-14T21:18:46.578Z,11.90
2022-10-14T21:21:16.815Z,11.89
2022-10-14T21:23:46.572Z,11.90
2022-10-14T21:26:14.598Z,11.84
2022-10-14T21:28:42.693Z,11.90
2022-10-14T21:31:13.664Z,11.79
2022-10-14T21:33:43.992Z,11.83
2022-10-14T21:36:13.948Z,11.78
2022-10-14T21:38:42.276Z,11.82
2022-10-14T21:41:12.342Z,11.79
2022-10-14T21:43:40.775Z,11.76
2022-10-14T21:46:10.502Z,11.75
2022-10-14T21:48:38.738Z,11.73
2022-10-14T21:51:08.844Z,11.76
2022-10-14T21:53:37.078Z,11.83
2022-10-14T21:56:05.665Z,11.76
2022-10-14T21:58:35.828Z,11.77
2022-10-14T22:01:05.956Z,11.78
2022-10-14T22:03:34.670Z,11.73
2022-10-14T22:08:34.477Z,11.77
2022-10-14T22:11:03.144Z,11.80
2022-10-14T22:13:31.844Z,11.71
2022-10-14T22:16:01.104Z,11.79
2022-10-14T22:18:29.197Z,11.78
2022-10-14T22:21:03.816Z,11.86
2022-10-14T22:23:31.872Z,11.83
2022-10-14T22:26:02.090Z,11.80
2022-10-14T22:28:30.725Z,11.90
2022-10-14T22:31:05.369Z,11.91
2022-10-14T22:33:35.396Z,11.87
2022-10-14T22:36:08.135Z,11.97
2022-10-14T22:38:36.758Z,12.00
2022-10-14T22:41:06.196Z,11.96
2022-10-14T22:43:34.796Z,12.02
2022-10-14T22:46:06.633Z,12.07
2022-10-14T22:48:36.157Z,12.08
2022-10-14T22:51:05.033Z,12.03
2022-10-14T23:08:50.030Z,12.41
2022-10-14T23:11:20.314Z,12.30
2022-10-14T23:13:48.968Z,12.25
2022-10-14T23:16:18.724Z,12.21
2022-10-14T23:18:47.593Z,12.15
2022-10-14T23:21:20.317Z,12.16
2022-10-14T23:23:50.777Z,12.14
2022-10-14T23:26:22.288Z,12.13
2022-10-14T23:28:51.838Z,12.14
2022-10-14T23:31:22.029Z,12.16
2022-10-14T23:33:54.944Z,12.14
2022-10-14T23:36:23.455Z,12.15
2022-10-14T23:38:52.867Z,12.16
2022-10-14T23:41:22.734Z,12.05
2022-10-14T23:43:51.441Z,12.13
2022-10-14T23:46:20.611Z,12.10
2022-10-14T23:48:55.889Z,12.11
2022-10-14T23:51:36.460Z,12.05
2022-10-14T23:54:05.933Z,12.04
2022-10-14T23:56:36.057Z,12.01
2022-10-14T23:59:04.324Z,12.05
